• Join FlightAware (Why Join?)
  • Login
  • US Flag 
06:40PM EST


 

Airport Tracker/Info


-or-


 

Live Flight TrackerFlight Track Log ✈ UPS1121 ✈ 24-Apr-2013 ✈ KALB - KBDL

Flight Track Log - Related Links

Times and Time Zones

All times are in EDT time to prevent confusion due to time zone crossing. See the UPS1121 flight status page for this flight to view local times or setup timezone preferences in your user account.

Time Position Orientation Groundspeed Altitude Reporting Facility
EDT Latitude Longitude Course Direction KTS MPH feet Rate Location/Type
08:34PM 42.7339 -73.8081 157° South 130 150 1,800  Level Boston Center
08:35PM 42.6883 -73.7817 157° South 174 200 3,800 2,455 Climbing Boston Center
08:36PM 42.6247 -73.7042 138° Southeast 217 250 7,200 3,450 Climbing Boston Center
08:37PM 42.5692 -73.6242 133° Southeast 280 322 10,700 1,850 Climbing Boston Center
08:38PM 42.5203 -73.5133 121° Southeast 326 375 10,900 164 Climbing Boston Center
08:39PM 42.4711 -73.4197 125° Southeast 358 412 11,000 74 Climbing Boston Center
08:39PM 42.4383 -73.3742 134° Southeast 354 407 11,000  Level Boston Center
08:40PM 42.3950 -73.3117 133° Southeast 354 407 11,000  Level Boston Center
08:40PM 42.3744 -73.2861 137° Southeast 320 368 11,000  Level Boston Center
08:41PM 42.3497 -73.2183 116° Southeast 314 361 11,000  Level Boston Center
08:41PM 42.3333 -73.1786 119° Southeast 307 353 11,000  Level Boston Center
08:42PM 42.3150 -73.1111 110° East 304 350 11,000 -197 Level Boston Center
08:42PM 42.2986 -73.0717 119° Southeast 311 358 10,800 -833 Descending Boston Center
08:43PM 42.2803 -73.0069 111° Southeast 304 350 10,000 -1,461 Descending Boston Center
08:44PM 42.2350 -72.8747 115° Southeast 308 354 8,000 -1,795 Descending Boston Center
08:45PM 42.1978 -72.7653 115° Southeast 299 344 6,200 -1,636 Descending Boston Center
08:46PM 42.1625 -72.6642 115° Southeast 291 335 4,700 -1,091 Descending Boston Center
08:47PM 42.1169 -72.5942 131° Southeast 247 284 4,000 -595 Descending Boston Center
08:48PM 42.0689 -72.5575 150° Southeast 187 215 3,500 -716 Descending Boston Center
08:49PM 42.0419 -72.5686 197° South 140 161 2,700 -818 Descending Boston Center
08:50PM 42.0106 -72.5911 208° Southwest 124 143 2,000 -645 Descending Boston Center
08:51PM 41.9897 -72.6189 225° Southwest 110 127 1,400 -595 Descending Boston Center
08:52PM 41.9689 -72.6467 225° Southwest 101 116 800 -590 Descending Boston Center